sensor_id;sensor_type;location;lat;lon;timestamp;pressure;altitude;pressure_sealevel;temperature;humidity
929;BME280;451;47.988;7.842;2022-09-13T00:07:59;98052.59;;;16.31;100.00
929;BME280;451;47.988;7.842;2022-09-13T00:17:01;98006.78;;;15.99;100.00
929;BME280;451;47.988;7.842;2022-09-13T00:26:08;98048.81;;;15.95;100.00
929;BME280;451;47.988;7.842;2022-09-13T00:35:10;98058.81;;;16.18;100.00
929;BME280;451;47.988;7.842;2022-09-13T00:53:53;98068.34;;;16.01;100.00
929;BME280;451;47.988;7.842;2022-09-13T01:03:00;98084.09;;;15.96;100.00
929;BME280;451;47.988;7.842;2022-09-13T01:12:16;98091.88;;;15.53;100.00
929;BME280;451;47.988;7.842;2022-09-13T01:50:06;98081.75;;;15.30;100.00
929;BME280;451;47.988;7.842;2022-09-13T01:59:17;98088.59;;;15.44;100.00
929;BME280;451;47.988;7.842;2022-09-13T02:08:24;98103.66;;;14.92;100.00
929;BME280;451;47.988;7.842;2022-09-13T02:17:36;98036.53;;;14.67;100.00
929;BME280;451;47.988;7.842;2022-09-13T02:26:39;98078.19;;;14.91;100.00
929;BME280;451;47.988;7.842;2022-09-13T02:35:51;98080.53;;;15.26;100.00
929;BME280;451;47.988;7.842;2022-09-13T02:44:55;98056.28;;;15.29;100.00
929;BME280;451;47.988;7.842;2022-09-13T02:54:09;98057.00;;;14.98;100.00
929;BME280;451;47.988;7.842;2022-09-13T03:03:15;98022.31;;;15.13;100.00
929;BME280;451;47.988;7.842;2022-09-13T03:31:06;98014.09;;;15.34;100.00
929;BME280;451;47.988;7.842;2022-09-13T03:40:17;98038.19;;;15.13;100.00
929;BME280;451;47.988;7.842;2022-09-13T03:49:23;98048.66;;;14.94;100.00
929;BME280;451;47.988;7.842;2022-09-13T03:58:26;98009.44;;;14.72;100.00
929;BME280;451;47.988;7.842;2022-09-13T04:07:29;98037.44;;;14.99;100.00
929;BME280;451;47.988;7.842;2022-09-13T04:16:30;98022.44;;;14.80;100.00
929;BME280;451;47.988;7.842;2022-09-13T04:25:32;98015.78;;;14.44;100.00
929;BME280;451;47.988;7.842;2022-09-13T04:34:34;98036.72;;;14.59;100.00
929;BME280;451;47.988;7.842;2022-09-13T04:43:35;98029.41;;;14.35;100.00
929;BME280;451;47.988;7.842;2022-09-13T04:52:37;98063.19;;;14.52;100.00
929;BME280;451;47.988;7.842;2022-09-13T05:01:39;98055.78;;;14.87;100.00
929;BME280;451;47.988;7.842;2022-09-13T05:10:40;98032.06;;;14.35;100.00
929;BME280;451;47.988;7.842;2022-09-13T05:19:42;98052.59;;;14.59;100.00
929;BME280;451;47.988;7.842;2022-09-13T05:28:44;98029.78;;;14.71;100.00
929;BME280;451;47.988;7.842;2022-09-13T05:37:48;98023.78;;;15.09;100.00
929;BME280;451;47.988;7.842;2022-09-13T05:46:50;97974.25;;;15.16;100.00
929;BME280;451;47.988;7.842;2022-09-13T05:55:53;98004.28;;;15.79;100.00
929;BME280;451;47.988;7.842;2022-09-13T06:04:55;97983.38;;;15.64;100.00
929;BME280;451;47.988;7.842;2022-09-13T06:13:56;97986.84;;;15.90;100.00
929;BME280;451;47.988;7.842;2022-09-13T06:22:58;98007.56;;;16.74;100.00
929;BME280;451;47.988;7.842;2022-09-13T06:32:00;98004.91;;;16.74;100.00
929;BME280;451;47.988;7.842;2022-09-13T06:50:08;97947.56;;;17.74;100.00
929;BME280;451;47.988;7.842;2022-09-13T06:59:10;97986.97;;;18.65;100.00
929;BME280;451;47.988;7.842;2022-09-13T07:08:12;97971.50;;;19.02;100.00
929;BME280;451;47.988;7.842;2022-09-13T07:17:13;97982.25;;;19.07;100.00
929;BME280;451;47.988;7.842;2022-09-13T07:26:15;97979.41;;;19.65;100.00
929;BME280;451;47.988;7.842;2022-09-13T07:35:17;97976.50;;;19.84;100.00
929;BME280;451;47.988;7.842;2022-09-13T07:44:18;97984.34;;;20.07;100.00
929;BME280;451;47.988;7.842;2022-09-13T07:53:20;97984.84;;;20.37;100.00
929;BME280;451;47.988;7.842;2022-09-13T08:02:22;97934.50;;;20.29;100.00
929;BME280;451;47.988;7.842;2022-09-13T08:11:28;97966.47;;;21.01;100.00
929;BME280;451;47.988;7.842;2022-09-13T08:20:30;97956.78;;;21.44;100.00
929;BME280;451;47.988;7.842;2022-09-13T08:29:31;97960.91;;;21.83;100.00
929;BME280;451;47.988;7.842;2022-09-13T08:38:33;97956.25;;;22.37;100.00
929;BME280;451;47.988;7.842;2022-09-13T08:47:45;97955.22;;;22.43;100.00
929;BME280;451;47.988;7.842;2022-09-13T09:06:14;97920.66;;;22.99;96.11
929;BME280;451;47.988;7.842;2022-09-13T09:15:27;97960.78;;;23.41;96.48
929;BME280;451;47.988;7.842;2022-09-13T09:24:33;97998.34;;;23.41;98.73
929;BME280;451;47.988;7.842;2022-09-13T09:33:46;98022.03;;;23.64;100.00
929;BME280;451;47.988;7.842;2022-09-13T09:42:53;98019.25;;;23.34;100.00
929;BME280;451;47.988;7.842;2022-09-13T09:51:56;98002.22;;;24.06;95.33
929;BME280;451;47.988;7.842;2022-09-13T10:00:58;97988.25;;;24.55;92.52
929;BME280;451;47.988;7.842;2022-09-13T10:10:17;97953.59;;;25.22;88.55
929;BME280;451;47.988;7.842;2022-09-13T10:19:24;97895.00;;;25.53;83.54
929;BME280;451;47.988;7.842;2022-09-13T10:28:27;97901.44;;;25.57;82.94
929;BME280;451;47.988;7.842;2022-09-13T10:37:30;97888.22;;;26.71;76.46
929;BME280;451;47.988;7.842;2022-09-13T10:46:36;97864.34;;;26.83;73.07
929;BME280;451;47.988;7.842;2022-09-13T10:55:40;97847.38;;;27.20;69.01
929;BME280;451;47.988;7.842;2022-09-13T11:42:22;97825.97;;;29.48;57.27
929;BME280;451;47.988;7.842;2022-09-13T12:00:59;97793.38;;;29.39;58.40
929;BME280;451;47.988;7.842;2022-09-13T12:10:14;97792.09;;;29.37;54.84
929;BME280;451;47.988;7.842;2022-09-13T12:19:23;97821.13;;;29.22;55.63
929;BME280;451;47.988;7.842;2022-09-13T12:37:51;97831.69;;;29.46;59.83
929;BME280;451;47.988;7.842;2022-09-13T13:06:07;97842.03;;;29.08;65.92
929;BME280;451;47.988;7.842;2022-09-13T13:33:28;97795.91;;;29.58;57.53
929;BME280;451;47.988;7.842;2022-09-13T13:42:32;97808.34;;;29.59;56.79
929;BME280;451;47.988;7.842;2022-09-13T13:51:38;97772.38;;;29.22;56.40
929;BME280;451;47.988;7.842;2022-09-13T14:00:49;97765.41;;;29.30;61.39
929;BME280;451;47.988;7.842;2022-09-13T14:10:16;97708.22;;;28.65;62.37
929;BME280;451;47.988;7.842;2022-09-13T14:19:25;97724.63;;;29.04;58.59
929;BME280;451;47.988;7.842;2022-09-13T14:28:27;97701.72;;;29.10;56.96
929;BME280;451;47.988;7.842;2022-09-13T14:37:32;97709.66;;;28.84;62.47
929;BME280;451;47.988;7.842;2022-09-13T14:46:38;97692.44;;;29.03;62.05
929;BME280;451;47.988;7.842;2022-09-13T14:55:43;97690.91;;;28.88;62.12
929;BME280;451;47.988;7.842;2022-09-13T15:04:50;97679.53;;;28.64;66.74
929;BME280;451;47.988;7.842;2022-09-13T15:23:36;97672.00;;;28.38;70.03
929;BME280;451;47.988;7.842;2022-09-13T15:32:44;97645.31;;;28.59;67.36
929;BME280;451;47.988;7.842;2022-09-13T15:41:52;97638.59;;;28.57;66.84
929;BME280;451;47.988;7.842;2022-09-13T15:51:11;97649.03;;;29.16;73.11
929;BME280;451;47.988;7.842;2022-09-13T16:00:19;97632.00;;;29.16;67.13
929;BME280;451;47.988;7.842;2022-09-13T16:09:23;97631.41;;;28.16;79.94
929;BME280;451;47.988;7.842;2022-09-13T16:18:25;97584.03;;;27.69;93.39
929;BME280;451;47.988;7.842;2022-09-13T16:27:27;97604.53;;;27.29;100.00
929;BME280;451;47.988;7.842;2022-09-13T16:36:29;97604.06;;;26.95;100.00
929;BME280;451;47.988;7.842;2022-09-13T16:45:31;97603.44;;;26.14;100.00
929;BME280;451;47.988;7.842;2022-09-13T16:54:33;97597.53;;;26.31;100.00
929;BME280;451;47.988;7.842;2022-09-13T17:03:37;97588.63;;;25.74;100.00
929;BME280;451;47.988;7.842;2022-09-13T17:12:39;97632.31;;;25.71;100.00
929;BME280;451;47.988;7.842;2022-09-13T17:21:41;97644.59;;;25.29;100.00
929;BME280;451;47.988;7.842;2022-09-13T17:30:45;97616.91;;;24.66;100.00
929;BME280;451;47.988;7.842;2022-09-13T17:39:47;97625.09;;;24.51;100.00
929;BME280;451;47.988;7.842;2022-09-13T17:48:50;97620.97;;;24.25;100.00
929;BME280;451;47.988;7.842;2022-09-13T17:57:52;97613.81;;;24.10;100.00
929;BME280;451;47.988;7.842;2022-09-13T18:06:55;97620.91;;;23.91;100.00
929;BME280;451;47.988;7.842;2022-09-13T18:16:05;97615.66;;;23.60;100.00
929;BME280;451;47.988;7.842;2022-09-13T18:25:07;97593.00;;;23.02;100.00
929;BME280;451;47.988;7.842;2022-09-13T18:34:12;97652.22;;;23.26;100.00
929;BME280;451;47.988;7.842;2022-09-13T18:43:14;97662.97;;;23.16;100.00
929;BME280;451;47.988;7.842;2022-09-13T18:52:16;97633.53;;;22.85;100.00
929;BME280;451;47.988;7.842;2022-09-13T19:01:26;97673.75;;;22.85;100.00
929;BME280;451;47.988;7.842;2022-09-13T19:10:29;97647.94;;;22.44;100.00
929;BME280;451;47.988;7.842;2022-09-13T19:19:33;97684.94;;;22.62;100.00
929;BME280;451;47.988;7.842;2022-09-13T19:28:37;97684.13;;;22.51;100.00
929;BME280;451;47.988;7.842;2022-09-13T19:37:39;97662.91;;;22.15;100.00
929;BME280;451;47.988;7.842;2022-09-13T19:46:41;97674.66;;;22.13;100.00
929;BME280;451;47.988;7.842;2022-09-13T19:55:44;97619.66;;;21.81;100.00
929;BME280;451;47.988;7.842;2022-09-13T20:04:47;97656.38;;;21.90;100.00
929;BME280;451;47.988;7.842;2022-09-13T20:13:49;97663.81;;;21.78;100.00
929;BME280;451;47.988;7.842;2022-09-13T20:22:51;97645.69;;;21.95;100.00
929;BME280;451;47.988;7.842;2022-09-13T20:31:52;97700.88;;;22.06;100.00
929;BME280;451;47.988;7.842;2022-09-13T20:41:01;97679.19;;;21.98;100.00
929;BME280;451;47.988;7.842;2022-09-13T20:50:03;97666.06;;;22.01;100.00
929;BME280;451;47.988;7.842;2022-09-13T20:59:05;97686.69;;;22.06;100.00
929;BME280;451;47.988;7.842;2022-09-13T21:08:13;97684.84;;;22.11;100.00
929;BME280;451;47.988;7.842;2022-09-13T21:17:34;97638.13;;;21.82;100.00
929;BME280;451;47.988;7.842;2022-09-13T21:26:37;97678.16;;;22.09;100.00
929;BME280;451;47.988;7.842;2022-09-13T21:35:42;97629.06;;;21.93;100.00
929;BME280;451;47.988;7.842;2022-09-13T21:44:44;97625.31;;;21.84;100.00
929;BME280;451;47.988;7.842;2022-09-13T21:53:48;97646.47;;;21.86;100.00
929;BME280;451;47.988;7.842;2022-09-13T22:02:50;97632.78;;;21.87;100.00
929;BME280;451;47.988;7.842;2022-09-13T22:11:52;97649.16;;;21.91;100.00
929;BME280;451;47.988;7.842;2022-09-13T22:20:54;97623.44;;;21.90;100.00
929;BME280;451;47.988;7.842;2022-09-13T22:29:55;97635.00;;;22.00;100.00
929;BME280;451;47.988;7.842;2022-09-13T22:38:57;97632.78;;;21.77;100.00
929;BME280;451;47.988;7.842;2022-09-13T22:47:59;97610.28;;;21.73;100.00
929;BME280;451;47.988;7.842;2022-09-13T22:57:01;97579.19;;;21.57;100.00
929;BME280;451;47.988;7.842;2022-09-13T23:06:04;97626.59;;;21.77;100.00
929;BME280;451;47.988;7.842;2022-09-13T23:15:06;97624.75;;;21.77;100.00
929;BME280;451;47.988;7.842;2022-09-13T23:24:14;97632.16;;;21.55;100.00
929;BME280;451;47.988;7.842;2022-09-13T23:33:16;97614.53;;;21.69;100.00
929;BME280;451;47.988;7.842;2022-09-13T23:42:18;97618.22;;;20.10;100.00
929;BME280;451;47.988;7.842;2022-09-13T23:51:22;97618.22;;;20.10;100.00
